Time;durP1;ratioP1;P1;durP2;ratioP2;P2;SDS_P1;SDS_P2;PMS_P1;PMS_P2;Temp;Humidity;BMP_temperature;BMP_pressure;BME280_temperature;BME280_humidity;BME280_pressure;Samples;Min_cycle;Max_cycle;Signal;HPM_P1;HPM_P2
2021/07/08 00:01:01;;;;;;;1.05;0.95;;;17.60;84.80;;;;;;5070982;28;20507;-77
2021/07/08 00:03:27;;;;;;;3.65;1.30;;;17.60;84.80;;;;;;5072486;28;20029;-77
2021/07/08 00:05:53;;;;;;;2.20;1.58;;;17.60;85.00;;;;;;5070930;28;20025;-77
2021/07/08 00:08:19;;;;;;;1.77;1.30;;;17.60;85.10;;;;;;5072226;28;20020;-77
2021/07/08 00:10:48;;;;;;;3.00;1.10;;;17.60;85.00;;;;;;5070974;28;20021;-77
2021/07/08 00:13:15;;;;;;;3.60;1.67;;;17.60;85.10;;;;;;5070910;28;20055;-77
2021/07/08 00:15:41;;;;;;;1.80;1.35;;;17.60;85.20;;;;;;5071020;28;20027;-76
2021/07/08 00:18:10;;;;;;;2.25;1.30;;;17.70;86.20;;;;;;5074482;28;20052;-76
2021/07/08 00:20:37;;;;;;;4.70;1.90;;;17.70;85.30;;;;;;5074881;28;20028;-76
2021/07/08 00:23:03;;;;;;;4.82;1.40;;;17.70;85.10;;;;;;5074774;28;20029;-76
2021/07/08 00:25:31;;;;;;;2.63;1.63;;;17.70;85.10;;;;;;5074825;28;20027;-76
2021/07/08 00:27:58;;;;;;;1.55;1.30;;;17.60;85.40;;;;;;5076037;28;20073;-76
2021/07/08 00:30:23;;;;;;;3.45;1.42;;;17.70;85.50;;;;;;5074532;28;20060;-76
2021/07/08 00:32:50;;;;;;;2.33;1.25;;;17.70;85.70;;;;;;5074708;28;20033;-76
2021/07/08 00:35:16;;;;;;;2.10;1.45;;;17.60;86.50;;;;;;5074488;28;20064;-76
2021/07/08 00:37:43;;;;;;;1.35;1.13;;;17.60;85.90;;;;;;5074610;28;20487;-76
2021/07/08 00:40:11;;;;;;;3.60;1.00;;;17.50;86.00;;;;;;5074535;28;20082;-76
2021/07/08 00:42:38;;;;;;;2.22;1.00;;;17.40;85.90;;;;;;5075394;28;20016;-76
2021/07/08 00:45:06;;;;;;;2.83;1.17;;;17.40;86.20;;;;;;5074976;28;20047;-76
2021/07/08 00:47:31;;;;;;;4.45;1.15;;;17.40;86.00;;;;;;5075368;28;20056;-77
2021/07/08 00:49:57;;;;;;;2.08;1.10;;;17.40;86.10;;;;;;5080421;28;20086;-76
2021/07/08 00:52:23;;;;;;;2.00;1.30;;;17.40;86.40;;;;;;5076164;28;20043;-76
2021/07/08 00:54:48;;;;;;;2.00;1.05;;;17.40;86.00;;;;;;5081520;28;20107;-76
2021/07/08 00:57:14;;;;;;;2.22;1.30;;;17.40;86.10;;;;;;5077810;28;20034;-77
2021/07/08 00:59:43;;;;;;;4.78;1.85;;;17.30;86.20;;;;;;5078140;28;20027;-77
2021/07/08 01:02:13;;;;;;;2.05;1.60;;;17.30;86.80;;;;;;5077074;28;20032;-77
2021/07/08 01:04:44;;;;;;;2.58;1.40;;;17.20;87.30;;;;;;5072723;28;20020;-77
2021/07/08 01:07:14;;;;;;;2.92;1.35;;;17.00;87.30;;;;;;5075260;28;20028;-77
2021/07/08 01:09:40;;;;;;;5.30;1.00;;;17.00;86.80;;;;;;5076256;28;20024;-78
2021/07/08 01:12:07;;;;;;;1.40;0.75;;;17.00;86.20;;;;;;5074662;28;20051;-78
2021/07/08 01:14:34;;;;;;;2.88;0.88;;;17.00;85.00;;;;;;5075206;28;20032;-78
2021/07/08 01:16:59;;;;;;;1.85;0.85;;;17.10;84.20;;;;;;5074896;28;20603;-77
2021/07/08 01:19:27;;;;;;;1.00;0.80;;;17.20;83.80;;;;;;5057942;28;20052;-77
2021/07/08 01:21:52;;;;;;;1.05;0.90;;;17.30;83.80;;;;;;5075961;28;20039;-77
2021/07/08 01:24:19;;;;;;;1.42;1.17;;;17.30;83.80;;;;;;5074698;28;20021;-76
2021/07/08 01:26:45;;;;;;;2.30;1.33;;;17.20;85.90;;;;;;5075814;28;20106;-76
2021/07/08 01:29:11;;;;;;;1.00;0.82;;;17.10;86.90;;;;;;5073110;28;20473;-76
2021/07/08 01:31:37;;;;;;;2.35;1.27;;;17.10;85.30;;;;;;5073665;28;20032;-76
2021/07/08 01:34:02;;;;;;;1.33;1.10;;;17.10;86.50;;;;;;5073564;28;20067;-76
2021/07/08 01:36:28;;;;;;;5.20;1.33;;;17.00;87.50;;;;;;5073809;28;20468;-77
2021/07/08 01:38:54;;;;;;;5.20;1.38;;;16.90;88.60;;;;;;5074943;28;20416;-76
2021/07/08 01:41:20;;;;;;;4.35;1.27;;;16.80;88.80;;;;;;5057137;28;20029;-76
2021/07/08 01:43:45;;;;;;;1.25;1.00;;;16.80;88.80;;;;;;5074837;28;20042;-76
2021/07/08 01:46:14;;;;;;;4.00;1.30;;;16.80;88.80;;;;;;5074701;28;20029;-76
2021/07/08 01:48:40;;;;;;;4.78;1.50;;;16.90;88.80;;;;;;5073696;28;20346;-77
2021/07/08 01:51:19;;;;;;;2.47;1.10;;;16.90;88.40;;;;;;5073197;28;20043;-77
2021/07/08 01:53:45;;;;;;;2.33;0.88;;;16.90;88.50;;;;;;5073894;28;20024;-77
2021/07/08 01:56:10;;;;;;;2.25;1.23;;;17.00;88.40;;;;;;5073147;28;20028;-77
2021/07/08 01:58:36;;;;;;;1.45;1.02;;;17.00;88.40;;;;;;5072965;28;20151;-77
2021/07/08 02:01:02;;;;;;;2.67;1.08;;;17.10;88.40;;;;;;5073131;28;20020;-77
2021/07/08 02:03:29;;;;;;;1.33;0.95;;;17.10;88.20;;;;;;5073209;28;20071;-77
2021/07/08 02:05:56;;;;;;;2.67;1.20;;;17.20;87.90;;;;;;5073059;28;20055;-77
2021/07/08 02:08:23;;;;;;;3.40;1.38;;;17.20;87.70;;;;;;5074849;28;20032;-77
2021/07/08 02:10:49;;;;;;;4.38;0.88;;;17.20;87.50;;;;;;5073151;28;20024;-77
2021/07/08 02:13:14;;;;;;;1.33;1.00;;;17.30;87.60;;;;;;5073140;28;20028;-77
2021/07/08 02:15:40;;;;;;;1.48;1.05;;;17.20;87.40;;;;;;5073133;28;20115;-76
2021/07/08 02:18:06;;;;;;;1.35;0.90;;;17.20;87.50;;;;;;5072682;28;20383;-76
2021/07/08 02:20:32;;;;;;;1.48;1.00;;;17.20;87.60;;;;;;5072739;28;20073;-76
2021/07/08 02:22:58;;;;;;;1.75;1.00;;;17.20;87.70;;;;;;5072698;28;20031;-76
2021/07/08 02:25:24;;;;;;;2.80;1.38;;;17.10;87.70;;;;;;5072735;28;20111;-76
2021/07/08 02:27:50;;;;;;;2.42;1.70;;;17.10;87.90;;;;;;5072777;28;20388;-76
2021/07/08 02:30:21;;;;;;;1.90;1.73;;;17.10;87.90;;;;;;5072475;28;20556;-76
2021/07/08 02:32:50;;;;;;;2.00;1.65;;;17.20;87.90;;;;;;5072280;28;20404;-76
2021/07/08 02:35:16;;;;;;;3.17;1.90;;;17.10;87.80;;;;;;5073722;28;20017;-76
2021/07/08 02:37:42;;;;;;;1.75;1.65;;;17.20;87.80;;;;;;5072077;28;20545;-76
2021/07/08 02:40:12;;;;;;;3.85;2.28;;;17.20;87.80;;;;;;5072158;28;20016;-76
2021/07/08 02:42:38;;;;;;;3.13;2.30;;;17.10;87.80;;;;;;5071899;28;20016;-75
2021/07/08 02:45:07;;;;;;;2.60;1.90;;;17.10;87.80;;;;;;5072156;28;20036;-75
2021/07/08 02:47:33;;;;;;;2.78;1.98;;;17.10;87.80;;;;;;5071870;28;20029;-75
2021/07/08 02:50:00;;;;;;;2.60;1.60;;;17.10;87.80;;;;;;5071905;28;20507;-75
2021/07/08 02:52:25;;;;;;;4.30;1.45;;;17.10;87.80;;;;;;5071814;28;20139;-76
2021/07/08 02:54:51;;;;;;;1.70;1.60;;;17.10;87.70;;;;;;5071811;28;20108;-76
2021/07/08 02:57:17;;;;;;;2.50;2.00;;;17.10;87.60;;;;;;5073445;28;20020;-76
2021/07/08 02:59:42;;;;;;;2.55;1.55;;;17.00;87.70;;;;;;5072201;28;20029;-76
2021/07/08 03:02:08;;;;;;;3.03;1.65;;;16.90;88.10;;;;;;5055020;28;20029;-75
2021/07/08 03:04:34;;;;;;;3.75;1.42;;;16.80;89.50;;;;;;5073344;28;20024;-75
2021/07/08 03:07:00;;;;;;;2.55;1.20;;;16.70;89.30;;;;;;5072013;28;20055;-75
2021/07/08 03:09:26;;;;;;;5.10;1.60;;;16.60;89.20;;;;;;5074113;28;20029;-76
2021/07/08 03:11:51;;;;;;;3.10;1.02;;;16.70;89.30;;;;;;5088099;28;20047;-76
2021/07/08 03:14:17;;;;;;;3.40;1.40;;;16.70;89.50;;;;;;5087927;28;20028;-77
2021/07/08 03:16:42;;;;;;;2.03;1.45;;;16.70;89.30;;;;;;5074503;28;20081;-75
2021/07/08 03:19:08;;;;;;;2.95;1.45;;;16.70;89.20;;;;;;5071626;28;20465;-75
2021/07/08 03:21:35;;;;;;;2.33;1.40;;;16.80;90.00;;;;;;5071563;28;20028;-76
2021/07/08 03:24:00;;;;;;;6.32;1.38;;;16.70;88.90;;;;;;5071691;28;20472;-75
2021/07/08 03:26:26;;;;;;;2.35;1.30;;;16.70;88.70;;;;;;5071221;28;20033;-77
2021/07/08 03:28:51;;;;;;;1.40;1.00;;;16.60;88.80;;;;;;5071362;28;20024;-77
2021/07/08 03:31:19;;;;;;;4.00;0.98;;;16.60;88.80;;;;;;5071168;28;20031;-76
2021/07/08 03:33:45;;;;;;;1.38;0.90;;;16.50;88.90;;;;;;5071547;28;20485;-76
2021/07/08 03:36:10;;;;;;;1.33;0.88;;;16.50;89.10;;;;;;5072779;28;20028;-76
2021/07/08 03:38:36;;;;;;;0.60;0.60;;;16.60;89.40;;;;;;5071374;28;20078;-76
2021/07/08 03:41:02;;;;;;;3.38;0.98;;;16.60;89.30;;;;;;5071191;28;20077;-76
2021/07/08 03:43:28;;;;;;;1.08;0.65;;;16.60;89.20;;;;;;5071470;28;20051;-76
2021/07/08 03:45:54;;;;;;;2.03;1.00;;;16.60;89.00;;;;;;5071104;28;20031;-76
2021/07/08 03:48:19;;;;;;;6.47;0.98;;;16.70;88.50;;;;;;5071056;28;20056;-76
2021/07/08 03:50:45;;;;;;;1.17;0.80;;;16.70;88.40;;;;;;5071101;28;20409;-76
2021/07/08 03:53:10;;;;;;;0.70;0.70;;;16.80;88.20;;;;;;5075053;28;20465;-76
2021/07/08 03:55:36;;;;;;;0.85;0.80;;;16.80;88.20;;;;;;5075459;28;20381;-76
2021/07/08 03:58:02;;;;;;;0.77;0.77;;;16.90;88.20;;;;;;5074922;28;20032;-76
2021/07/08 04:00:30;;;;;;;2.03;1.02;;;16.90;88.30;;;;;;5075259;28;20028;-76
2021/07/08 04:02:58;;;;;;;3.60;1.13;;;16.90;88.30;;;;;;5075009;28;20060;-76
2021/07/08 04:05:24;;;;;;;2.65;1.30;;;16.90;88.20;;;;;;5075221;28;20031;-76
2021/07/08 04:07:51;;;;;;;2.42;0.80;;;16.90;88.00;;;;;;5074900;28;20115;-76
2021/07/08 04:10:16;;;;;;;2.22;1.27;;;16.80;88.00;;;;;;5075115;28;20398;-76
2021/07/08 04:12:42;;;;;;;2.38;1.00;;;16.70;88.40;;;;;;5074677;28;20120;-76
2021/07/08 04:15:08;;;;;;;2.53;1.00;;;16.60;88.50;;;;;;5074843;28;20115;-76
2021/07/08 04:17:34;;;;;;;1.23;0.90;;;16.70;88.90;;;;;;5076226;28;20480;-76
2021/07/08 04:19:59;;;;;;;1.23;1.13;;;16.70;88.90;;;;;;5074752;28;20133;-75
2021/07/08 04:22:25;;;;;;;4.13;1.00;;;16.70;88.80;;;;;;5074694;28;20024;-75
2021/07/08 04:24:51;;;;;;;3.65;0.85;;;16.70;88.80;;;;;;5075677;28;20025;-75
2021/07/08 04:27:17;;;;;;;2.50;1.13;;;16.70;89.00;;;;;;5074504;28;20485;-75
2021/07/08 04:29:43;;;;;;;3.95;1.05;;;16.60;89.20;;;;;;5074773;28;20021;-75
2021/07/08 04:32:08;;;;;;;4.93;1.33;;;16.60;88.70;;;;;;5074471;28;20033;-75
2021/07/08 04:34:34;;;;;;;2.30;1.10;;;16.60;89.00;;;;;;5074426;28;20052;-76
2021/07/08 04:37:01;;;;;;;1.20;1.10;;;16.60;89.20;;;;;;5074278;28;20074;-76
2021/07/08 04:39:27;;;;;;;1.30;1.15;;;16.60;89.30;;;;;;5074602;28;20020;-76
2021/07/08 04:41:52;;;;;;;1.30;0.95;;;16.70;89.40;;;;;;5074188;28;20032;-76
2021/07/08 04:44:18;;;;;;;3.42;1.25;;;16.70;89.50;;;;;;5074118;28;20029;-76
2021/07/08 04:46:44;;;;;;;1.52;1.08;;;16.70;89.40;;;;;;5075537;28;20028;-76
2021/07/08 04:49:10;;;;;;;3.13;1.10;;;16.60;89.20;;;;;;5073865;28;20385;-76
2021/07/08 04:51:39;;;;;;;1.70;0.82;;;16.70;89.00;;;;;;5074043;28;20477;-78
2021/07/08 04:54:05;;;;;;;0.98;0.90;;;16.70;88.30;;;;;;5073966;28;20495;-75
2021/07/08 04:56:30;;;;;;;4.38;0.98;;;16.70;88.40;;;;;;5074064;28;20033;-77
2021/07/08 04:58:56;;;;;;;2.00;1.35;;;16.70;88.60;;;;;;5073874;28;20530;-76
2021/07/08 05:01:21;;;;;;;2.13;0.98;;;16.70;89.40;;;;;;5074228;28;20035;-75
2021/07/08 05:03:47;;;;;;;4.32;1.00;;;16.70;88.80;;;;;;5071316;28;20020;-76
2021/07/08 05:06:12;;;;;;;0.77;0.70;;;16.70;88.40;;;;;;5074639;28;20111;-76
2021/07/08 05:08:41;;;;;;;1.90;1.27;;;16.80;88.50;;;;;;5073705;28;20024;-75
2021/07/08 05:11:08;;;;;;;4.03;1.70;;;16.90;88.40;;;;;;5074592;28;20076;-76
2021/07/08 05:13:34;;;;;;;1.30;1.20;;;16.90;88.10;;;;;;5074997;28;20480;-76
2021/07/08 05:16:00;;;;;;;1.15;0.90;;;17.00;87.80;;;;;;5073061;28;20037;-76
2021/07/08 05:18:25;;;;;;;1.05;0.98;;;17.00;87.70;;;;;;5073186;28;20390;-74
2021/07/08 05:20:51;;;;;;;1.60;1.08;;;17.10;87.50;;;;;;5072849;28;20021;-75
2021/07/08 05:23:18;;;;;;;1.15;1.05;;;17.10;87.20;;;;;;5074216;28;20044;-78
2021/07/08 05:25:49;;;;;;;1.15;1.00;;;17.10;86.90;;;;;;5074448;28;20016;-77
2021/07/08 05:28:15;;;;;;;3.47;1.10;;;17.10;87.00;;;;;;5072605;28;20028;-77
2021/07/08 05:30:41;;;;;;;2.17;1.30;;;17.20;86.90;;;;;;5072565;28;20222;-76
2021/07/08 05:33:07;;;;;;;2.08;0.93;;;17.20;86.90;;;;;;5072797;28;20504;-77
2021/07/08 05:35:34;;;;;;;4.40;1.63;;;17.20;87.00;;;;;;5072784;28;20029;-77
2021/07/08 05:38:00;;;;;;;1.70;1.20;;;17.20;86.70;;;;;;5074062;28;20111;-77
2021/07/08 05:40:26;;;;;;;1.88;1.35;;;17.20;87.00;;;;;;5072769;28;20112;-76
2021/07/08 05:42:52;;;;;;;1.50;1.00;;;17.20;87.00;;;;;;5072894;28;20086;-75
2021/07/08 05:45:19;;;;;;;2.70;0.98;;;17.20;87.00;;;;;;5072871;28;20068;-76
2021/07/08 05:47:45;;;;;;;2.90;1.08;;;17.20;87.00;;;;;;5072604;28;20032;-75
2021/07/08 05:50:11;;;;;;;1.40;1.02;;;17.20;86.90;;;;;;5072583;28;20082;-76
2021/07/08 05:52:36;;;;;;;2.17;0.98;;;17.30;87.20;;;;;;5073764;28;20037;-77
2021/07/08 05:55:03;;;;;;;2.25;0.90;;;17.30;87.40;;;;;;5072494;28;20028;-77
2021/07/08 05:57:29;;;;;;;12.50;1.00;;;17.40;87.60;;;;;;5072730;28;20025;-77
2021/07/08 05:59:54;;;;;;;1.23;0.90;;;17.40;87.90;;;;;;5072703;28;20016;-77
2021/07/08 06:02:20;;;;;;;1.05;0.93;;;17.40;87.90;;;;;;5074140;28;20491;-76
2021/07/08 06:04:46;;;;;;;3.97;1.13;;;17.40;88.20;;;;;;5072530;28;20020;-76
2021/07/08 06:07:12;;;;;;;1.05;0.95;;;17.50;88.00;;;;;;5072562;28;20357;-77
2021/07/08 06:09:38;;;;;;;1.80;1.05;;;17.50;87.70;;;;;;5072281;28;20025;-75
2021/07/08 06:12:04;;;;;;;2.38;1.08;;;17.50;87.80;;;;;;5072109;28;20035;-75
2021/07/08 06:14:29;;;;;;;2.85;1.00;;;17.50;88.00;;;;;;5071393;28;20078;-76
2021/07/08 06:16:55;;;;;;;1.55;1.05;;;17.40;87.60;;;;;;5071619;28;20051;-76
2021/07/08 06:19:21;;;;;;;2.20;1.17;;;17.40;87.60;;;;;;5073685;28;20028;-76
2021/07/08 06:21:48;;;;;;;1.42;1.00;;;17.40;87.50;;;;;;5071914;28;20032;-77
2021/07/08 06:24:15;;;;;;;2.85;1.55;;;17.40;87.70;;;;;;5072323;28;20070;-78
2021/07/08 06:26:40;;;;;;;4.30;1.42;;;17.40;87.80;;;;;;5073572;28;20035;-79
2021/07/08 06:29:07;;;;;;;2.15;1.20;;;17.40;88.10;;;;;;5073244;28;20012;-77
2021/07/08 06:31:33;;;;;;;3.85;1.15;;;17.40;88.00;;;;;;5072027;28;20074;-78
2021/07/08 06:34:00;;;;;;;2.92;1.33;;;17.50;88.20;;;;;;5071776;28;20033;-78
2021/07/08 06:36:25;;;;;;;3.35;1.02;;;17.60;88.00;;;;;;5071683;28;20385;-78
2021/07/08 06:38:51;;;;;;;8.63;1.75;;;17.60;88.00;;;;;;5071881;28;20054;-76
2021/07/08 06:41:18;;;;;;;5.72;1.60;;;17.70;88.50;;;;;;5038620;28;20032;-79
2021/07/08 06:43:47;;;;;;;1.95;1.17;;;17.80;89.00;;;;;;5071682;28;20080;-80
2021/07/08 06:46:17;;;;;;;5.97;2.08;;;18.00;88.40;;;;;;5072311;28;20059;-80
2021/07/08 06:48:49;;;;;;;4.03;1.30;;;18.30;88.40;;;;;;5072233;28;20041;-79
2021/07/08 06:51:15;;;;;;;7.10;1.88;;;18.40;87.30;;;;;;5073080;28;20024;-79
2021/07/08 06:54:01;;;;;;;3.23;1.23;;;18.50;86.50;;;;;;5071219;28;20515;-76
2021/07/08 06:56:27;;;;;;;2.60;1.27;;;18.60;85.60;;;;;;5072801;28;20021;-76
2021/07/08 06:58:53;;;;;;;4.45;1.58;;;18.70;85.60;;;;;;5071509;28;20043;-79
2021/07/08 07:01:24;;;;;;;2.08;1.30;;;18.70;85.20;;;;;;5072257;28;20017;-78
2021/07/08 07:03:51;;;;;;;2.33;1.33;;;18.80;84.90;;;;;;5071874;28;20068;-79
2021/07/08 07:06:38;;;;;;;3.95;1.10;;;18.80;85.00;;;;;;5080852;28;20030;-78
2021/07/08 07:09:12;;;;;;;2.08;1.63;;;18.80;84.00;;;;;;5081981;28;20067;-78
2021/07/08 07:12:02;;;;;;;5.25;1.80;;;18.80;83.60;;;;;;5071886;28;20032;-79
2021/07/08 07:14:28;;;;;;;3.40;1.27;;;18.90;83.40;;;;;;5072930;28;20097;-79
2021/07/08 07:16:54;;;;;;;3.20;1.45;;;19.00;82.50;;;;;;5073451;28;20111;-79
2021/07/08 07:19:23;;;;;;;3.33;1.60;;;19.00;82.20;;;;;;5071261;28;20166;-78
2021/07/08 07:21:49;;;;;;;1.90;1.23;;;19.10;82.30;;;;;;5072707;28;20074;-79
2021/07/08 07:24:15;;;;;;;1.77;0.98;;;19.20;82.10;;;;;;5072068;28;20036;-79
2021/07/08 07:26:42;;;;;;;3.33;1.38;;;19.30;82.00;;;;;;5067946;28;20531;-79
2021/07/08 07:29:13;;;;;;;2.15;1.40;;;19.40;81.60;;;;;;5073204;28;20104;-77
2021/07/08 07:31:50;;;;;;;3.78;1.50;;;19.50;81.30;;;;;;5072689;28;20505;-78
2021/07/08 07:34:20;;;;;;;3.00;1.33;;;19.60;80.70;;;;;;5071347;28;20074;-78
2021/07/08 07:36:46;;;;;;;2.45;1.50;;;19.60;80.60;;;;;;5071296;28;20074;-78
2021/07/08 07:39:14;;;;;;;3.20;1.65;;;19.60;80.60;;;;;;5071266;28;20032;-78
2021/07/08 07:41:42;;;;;;;2.63;1.40;;;19.70;80.60;;;;;;5072077;28;20036;-78
2021/07/08 07:44:08;;;;;;;2.85;1.48;;;19.70;80.10;;;;;;5071454;28;20169;-80
2021/07/08 07:46:34;;;;;;;3.53;1.73;;;19.80;79.70;;;;;;5070762;28;20418;-79
2021/07/08 07:49:03;;;;;;;1.40;1.30;;;20.00;79.50;;;;;;5083300;28;20048;-79
2021/07/08 07:51:31;;;;;;;4.28;1.85;;;20.10;79.10;;;;;;5075459;28;20043;-79
2021/07/08 07:53:58;;;;;;;3.38;1.60;;;20.30;78.50;;;;;;5092226;28;20028;-79
2021/07/08 07:56:25;;;;;;;3.97;1.92;;;20.40;78.00;;;;;;5076693;28;20039;-78
2021/07/08 07:58:51;;;;;;;2.95;2.00;;;20.50;77.90;;;;;;5076721;28;20476;-78
2021/07/08 08:01:17;;;;;;;3.97;1.52;;;20.60;77.70;;;;;;5077935;28;20028;-78
2021/07/08 08:03:43;;;;;;;2.35;1.70;;;20.70;78.10;;;;;;5097195;28;20551;-77
2021/07/08 08:08:52;;;;;;;3.95;1.33;;;20.70;78.30;;;;;;5092567;28;20085;-78
2021/07/08 08:11:21;;;;;;;2.38;1.30;;;20.70;78.40;;;;;;5073827;28;20036;-78
2021/07/08 08:13:48;;;;;;;1.95;1.73;;;20.80;78.40;;;;;;5074126;28;20059;-78
2021/07/08 08:16:13;;;;;;;2.25;1.30;;;20.70;78.00;;;;;;5041400;28;20514;-78
2021/07/08 08:18:39;;;;;;;2.63;1.70;;;20.80;78.20;;;;;;5073711;28;20111;-78
2021/07/08 08:21:04;;;;;;;2.05;1.40;;;20.70;77.10;;;;;;5073507;28;20141;-77
2021/07/08 08:23:30;;;;;;;3.08;1.52;;;20.60;78.20;;;;;;5073449;28;20028;-77
2021/07/08 08:25:56;;;;;;;1.50;1.35;;;20.70;77.30;;;;;;5073835;28;20032;-78
2021/07/08 08:28:23;;;;;;;2.50;1.52;;;20.60;77.70;;;;;;5073630;28;20035;-78
2021/07/08 08:30:49;;;;;;;3.47;1.30;;;20.70;77.70;;;;;;5073643;28;20023;-78
2021/07/08 08:33:15;;;;;;;1.52;1.40;;;20.70;76.90;;;;;;5073523;28;20032;-78
2021/07/08 08:35:40;;;;;;;2.97;1.83;;;20.80;77.20;;;;;;5073395;28;20032;-78
2021/07/08 08:38:07;;;;;;;2.72;1.35;;;20.80;77.00;;;;;;5075923;28;20034;-78
2021/07/08 08:40:33;;;;;;;1.65;1.55;;;20.70;75.90;;;;;;5060761;28;20077;-80
2021/07/08 08:42:59;;;;;;;1.35;1.13;;;20.70;76.30;;;;;;5094978;28;20433;-77
2021/07/08 08:45:25;;;;;;;1.50;1.20;;;20.80;76.90;;;;;;5077163;28;20115;-78
2021/07/08 08:47:56;;;;;;;2.30;1.63;;;20.80;76.50;;;;;;5075538;28;20020;-79
2021/07/08 08:50:26;;;;;;;2.22;1.60;;;20.80;77.00;;;;;;5054198;28;20472;-80
2021/07/08 08:52:52;;;;;;;1.95;1.20;;;20.80;76.80;;;;;;5056882;28;20082;-80
2021/07/08 08:55:18;;;;;;;1.60;1.45;;;20.80;77.00;;;;;;5056750;28;20016;-80
2021/07/08 08:57:47;;;;;;;4.80;1.83;;;20.70;78.10;;;;;;5057090;28;20035;-80
2021/07/08 09:00:28;;;;;;;3.95;2.05;;;20.50;78.30;;;;;;5040914;28;20496;-80
2021/07/08 09:03:02;;;;;;;5.88;2.20;;;20.30;79.80;;;;;;5057059;28;20047;-80
2021/07/08 09:05:30;;;;;;;4.72;2.40;;;20.10;80.10;;;;;;5056365;28;20545;-80
2021/07/08 09:08:19;;;;;;;4.32;2.05;;;20.00;79.90;;;;;;5056795;28;20043;-79
2021/07/08 09:11:01;;;;;;;6.82;1.85;;;20.00;80.40;;;;;;5040601;28;20148;-80
2021/07/08 09:13:28;;;;;;;4.85;2.92;;;20.10;80.80;;;;;;5057011;28;20102;-80
2021/07/08 09:16:08;;;;;;;3.33;2.28;;;20.10;80.90;;;;;;5073578;28;20376;-79
2021/07/08 09:18:34;;;;;;;2.88;1.90;;;20.10;80.80;;;;;;5056658;28;20476;-79
2021/07/08 09:21:17;;;;;;;3.50;1.80;;;20.10;80.80;;;;;;5056587;28;20029;-79
2021/07/08 09:24:04;;;;;;;4.05;2.10;;;20.20;80.50;;;;;;5056660;28;20439;-79
2021/07/08 09:26:30;;;;;;;3.55;2.20;;;20.30;80.50;;;;;;5056198;28;20029;-80
2021/07/08 09:29:10;;;;;;;4.13;2.13;;;20.30;80.10;;;;;;5073491;28;20056;-79
2021/07/08 09:31:37;;;;;;;1.88;1.48;;;20.30;79.70;;;;;;5055799;28;20036;-80
2021/07/08 09:34:22;;;;;;;4.20;1.75;;;20.30;79.70;;;;;;5056218;28;20042;-80
2021/07/08 09:37:10;;;;;;;2.63;1.90;;;20.30;80.10;;;;;;5056098;28;20034;-80
2021/07/08 09:39:43;;;;;;;1.98;1.35;;;20.30;80.00;;;;;;5071043;28;20028;-80
2021/07/08 09:42:11;;;;;;;2.53;1.75;;;20.40;79.80;;;;;;5055994;28;20028;-80
2021/07/08 09:44:38;;;;;;;3.00;2.03;;;20.40;79.80;;;;;;5055884;28;20029;-79
2021/07/08 09:47:04;;;;;;;2.85;2.25;;;20.40;79.90;;;;;;5056227;28;20496;-80
2021/07/08 09:49:33;;;;;;;3.95;2.15;;;20.30;79.90;;;;;;5069965;28;20404;-80
2021/07/08 09:51:58;;;;;;;2.30;1.40;;;20.30;79.80;;;;;;5076262;28;20044;-80
2021/07/08 09:54:50;;;;;;;2.00;1.80;;;20.40;79.60;;;;;;5059557;28;20024;-80
2021/07/08 09:57:48;;;;;;;2.53;1.70;;;20.40;79.40;;;;;;5092423;28;20049;-80
2021/07/08 10:00:20;;;;;;;;;;;20.40;79.00;;;;;;5076371;28;20380;-80
2021/07/08 10:02:47;;;;;;;1.65;1.55;;;20.40;79.20;;;;;;5075964;28;19904;-79
2021/07/08 10:05:16;;;;;;;4.72;1.77;;;20.30;79.60;;;;;;5093275;28;20502;-79
2021/07/08 10:07:43;;;;;;;2.35;1.48;;;20.20;79.30;;;;;;5075837;28;20408;-80
2021/07/08 10:10:09;;;;;;;2.47;1.20;;;20.20;79.90;;;;;;5075596;28;20032;-80
2021/07/08 10:12:41;;;;;;;0.93;0.90;;;20.20;79.70;;;;;;5075706;28;20089;-80
2021/07/08 10:15:09;;;;;;;3.53;1.95;;;20.30;79.40;;;;;;5075367;28;20016;-80
2021/07/08 10:17:37;;;;;;;5.82;1.88;;;20.30;79.60;;;;;;5075117;28;20488;-80
2021/07/08 10:20:10;;;;;;;3.05;1.70;;;20.30;80.00;;;;;;5093556;28;20063;-80
2021/07/08 10:22:40;;;;;;;1.90;1.70;;;20.30;80.20;;;;;;5058888;28;20028;-80
2021/07/08 10:25:08;;;;;;;3.70;1.77;;;20.30;79.30;;;;;;5075806;28;20031;-80
2021/07/08 10:27:42;;;;;;;2.20;1.80;;;20.30;78.10;;;;;;5075322;28;20480;-80
2021/07/08 10:30:09;;;;;;;2.10;1.70;;;20.30;78.30;;;;;;5071375;28;20036;-80
2021/07/08 10:32:36;;;;;;;1.85;1.45;;;20.20;78.10;;;;;;5075171;28;20097;-80
2021/07/08 10:35:01;;;;;;;1.40;1.30;;;20.20;77.50;;;;;;5075229;28;20020;-80
2021/07/08 10:37:27;;;;;;;2.92;1.23;;;20.20;77.50;;;;;;5075372;28;20043;-80
2021/07/08 10:39:54;;;;;;;1.65;1.20;;;20.20;77.20;;;;;;5075460;28;20016;-80
2021/07/08 10:42:49;;;;;;;1.45;1.33;;;20.20;77.40;;;;;;5093482;28;20543;-80
2021/07/08 10:45:21;;;;;;;1.75;1.30;;;20.20;77.50;;;;;;5082617;28;20039;-80
2021/07/08 10:47:47;;;;;;;1.42;1.25;;;20.20;77.60;;;;;;5074985;28;20028;-79
2021/07/08 10:50:35;;;;;;;1.92;1.38;;;20.20;77.70;;;;;;5074786;28;20457;-81
2021/07/08 10:53:20;;;;;;;3.45;1.60;;;20.30;77.90;;;;;;5074816;28;20078;-80
2021/07/08 10:55:52;;;;;;;2.78;1.50;;;20.30;77.80;;;;;;5080142;28;20088;-79
2021/07/08 10:58:56;;;;;;;1.55;1.27;;;20.30;77.60;;;;;;5074924;28;20028;-78
2021/07/08 11:01:22;;;;;;;5.57;2.50;;;20.40;77.30;;;;;;5093279;28;20063;-79
2021/07/08 11:03:49;;;;;;;2.75;1.80;;;20.40;77.60;;;;;;5076181;28;20028;-79
2021/07/08 11:06:37;;;;;;;3.85;1.50;;;20.30;78.00;;;;;;5074918;28;20024;-80
2021/07/08 11:09:18;;;;;;;2.75;1.70;;;20.30;78.50;;;;;;5081312;28;20214;-79
2021/07/08 11:11:50;;;;;;;3.60;1.70;;;20.20;78.10;;;;;;5112084;28;20032;-79
2021/07/08 11:14:17;;;;;;;4.63;2.33;;;20.20;78.30;;;;;;5095435;28;20024;-80
2021/07/08 11:16:52;;;;;;;5.10;1.80;;;20.20;79.30;;;;;;5074776;28;20055;-79
2021/07/08 11:19:24;;;;;;;;;;;20.20;79.20;;;;;;5075154;28;20388;-81
2021/07/08 11:21:49;;;;;;;2.33;1.60;;;20.20;79.80;;;;;;5074658;28;20263;-79
2021/07/08 11:24:26;;;;;;;2.95;1.25;;;20.30;79.60;;;;;;5074695;28;20024;-81
2021/07/08 11:27:10;;;;;;;1.20;1.10;;;20.40;79.10;;;;;;5074956;28;20024;-79
2021/07/08 11:29:51;;;;;;;1.58;1.20;;;20.50;78.30;;;;;;5092977;28;20020;-80
2021/07/08 11:32:24;;;;;;;1.40;1.30;;;20.60;77.80;;;;;;5074626;28;20372;-79
2021/07/08 11:35:31;;;;;;;1.88;1.30;;;20.70;77.50;;;;;;5074752;28;20016;-79
2021/07/08 11:38:03;;;;;;;3.38;1.10;;;20.90;77.60;;;;;;5074723;28;20413;-79
2021/07/08 11:40:44;;;;;;;2.35;1.13;;;21.10;77.60;;;;;;5074638;28;20031;-80
2021/07/08 11:43:18;;;;;;;0.68;0.68;;;21.20;77.10;;;;;;5074707;28;20017;-80
2021/07/08 11:45:46;;;;;;;2.90;0.50;;;21.20;72.70;;;;;;5092844;28;20043;-80
2021/07/08 11:48:21;;;;;;;0.57;0.57;;;21.10;71.10;;;;;;5055189;28;20039;-81
2021/07/08 11:50:49;;;;;;;1.48;0.57;;;21.10;70.40;;;;;;5074722;28;20038;-81
2021/07/08 11:53:17;;;;;;;0.85;0.70;;;21.10;71.10;;;;;;5074608;28;20047;-80
2021/07/08 11:55:45;;;;;;;0.47;0.47;;;21.20;71.60;;;;;;5073927;28;20027;-80
2021/07/08 11:58:13;;;;;;;0.40;0.40;;;21.10;69.90;;;;;;5057791;28;20166;-79
2021/07/08 12:00:42;;;;;;;1.17;0.60;;;21.20;69.70;;;;;;5074309;28;20112;-80
2021/07/08 12:03:19;;;;;;;0.70;0.60;;;21.30;69.10;;;;;;5074398;28;20040;-80
2021/07/08 12:05:45;;;;;;;2.75;0.82;;;21.40;70.00;;;;;;5074292;28;20016;-79
2021/07/08 12:08:25;;;;;;;1.23;0.73;;;21.10;73.60;;;;;;5074578;28;20028;-79
2021/07/08 12:11:07;;;;;;;1.02;0.93;;;20.90;74.90;;;;;;5057821;28;20460;-80
2021/07/08 12:13:36;;;;;;;1.33;0.90;;;20.80;76.00;;;;;;5077196;28;20032;-79
2021/07/08 12:16:08;;;;;;;3.63;1.33;;;20.40;77.60;;;;;;5077981;28;20024;-79
2021/07/08 12:18:48;;;;;;;4.63;1.23;;;20.20;77.90;;;;;;5058786;28;20028;-79
2021/07/08 12:21:44;;;;;;;2.05;1.20;;;20.00;79.00;;;;;;5078126;28;20249;-80
2021/07/08 12:24:30;;;;;;;;;;;19.90;79.30;;;;;;5073258;28;20028;-81
2021/07/08 12:26:59;;;;;;;3.30;1.50;;;19.90;78.80;;;;;;5076868;28;19958;-79
2021/07/08 12:29:28;;;;;;;3.85;1.70;;;19.90;78.70;;;;;;5061524;28;20036;-80
2021/07/08 12:31:56;;;;;;;1.33;1.23;;;19.80;79.40;;;;;;5077938;28;20352;-80
2021/07/08 12:34:35;;;;;;;2.78;1.23;;;19.80;80.00;;;;;;5077599;28;20022;-80
2021/07/08 12:37:20;;;;;;;2.42;1.30;;;20.00;79.80;;;;;;5096032;28;20024;-81
2021/07/08 12:39:53;;;;;;;1.30;1.20;;;20.20;78.80;;;;;;5077969;28;20055;-81
2021/07/08 12:42:21;;;;;;;3.88;1.30;;;20.40;78.20;;;;;;5061896;28;20044;-80
2021/07/08 12:44:57;;;;;;;2.47;1.05;;;20.50;77.80;;;;;;5077299;28;20051;-79
2021/07/08 12:47:23;;;;;;;5.32;1.08;;;20.60;77.10;;;;;;5077533;28;20024;-79
2021/07/08 12:49:50;;;;;;;3.55;0.80;;;20.60;76.90;;;;;;5095642;28;20492;-80
2021/07/08 12:52:19;;;;;;;2.42;0.73;;;20.60;74.50;;;;;;5077395;28;20090;-79
2021/07/08 12:54:45;;;;;;;2.72;0.90;;;20.50;74.80;;;;;;5077092;28;20349;-79
2021/07/08 12:57:14;;;;;;;2.50;0.50;;;20.60;74.20;;;;;;5077640;28;20047;-79
2021/07/08 13:00:04;;;;;;;3.75;0.60;;;20.60;74.00;;;;;;5077552;28;20469;-80